Terminal Aerodrome Forecast
Issued by NWS Twin Cities, MN

Home | Current Version | Previous Version | Graphics & Text | Print | Product List | Glossary On
Versions: 1 2 3 4 5 6 7 8 9 10 11 12 13 14 15 16 17 18 19 20 21 22 23 24 25 26 27 28 29 30 31 32 33 34 35
060
FTUS43 KMPX 131455 AAC
TAFMSP
TAF AMD
KMSP 131455Z 1315/1418 32018G30KT P6SM VCSH OVC015
     FM132200 33014G22KT P6SM BKN025 OVC060
     FM140300 31005KT P6SM OVC025=

USA.gov is the U.S. government's official web portal to all federal, state and local government web resources and services.